sensor_id;sensor_type;location;lat;lon;timestamp;P1;durP1;ratioP1;P2;durP2;ratioP2
34144;SDS011;20422;53.014;8.886;2022-11-09T00:01:29;4.55;;;2.75;;
34144;SDS011;20422;53.014;8.886;2022-11-09T00:03:56;4.80;;;2.25;;
34144;SDS011;20422;53.014;8.886;2022-11-09T00:06:25;4.90;;;2.20;;
34144;SDS011;20422;53.014;8.886;2022-11-09T00:08:52;4.43;;;1.80;;
34144;SDS011;20422;53.014;8.886;2022-11-09T00:11:18;3.47;;;2.20;;
34144;SDS011;20422;53.014;8.886;2022-11-09T00:13:45;9.80;;;2.30;;
34144;SDS011;20422;53.014;8.886;2022-11-09T00:16:13;4.38;;;2.53;;
34144;SDS011;20422;53.014;8.886;2022-11-09T00:18:44;5.32;;;1.90;;
34144;SDS011;20422;53.014;8.886;2022-11-09T00:21:19;7.22;;;2.22;;
34144;SDS011;20422;53.014;8.886;2022-11-09T00:23:46;3.92;;;2.42;;
34144;SDS011;20422;53.014;8.886;2022-11-09T00:26:14;5.20;;;2.75;;
34144;SDS011;20422;53.014;8.886;2022-11-09T00:28:41;4.88;;;2.20;;
34144;SDS011;20422;53.014;8.886;2022-11-09T00:31:13;7.35;;;2.13;;
34144;SDS011;20422;53.014;8.886;2022-11-09T00:33:45;6.65;;;2.38;;
34144;SDS011;20422;53.014;8.886;2022-11-09T00:36:13;4.72;;;2.35;;
34144;SDS011;20422;53.014;8.886;2022-11-09T00:38:40;8.88;;;2.50;;
34144;SDS011;20422;53.014;8.886;2022-11-09T00:41:08;6.80;;;2.35;;
34144;SDS011;20422;53.014;8.886;2022-11-09T00:43:35;5.13;;;2.08;;
34144;SDS011;20422;53.014;8.886;2022-11-09T00:46:01;4.68;;;2.03;;
34144;SDS011;20422;53.014;8.886;2022-11-09T00:48:28;4.75;;;2.22;;
34144;SDS011;20422;53.014;8.886;2022-11-09T00:50:55;11.80;;;2.58;;
34144;SDS011;20422;53.014;8.886;2022-11-09T00:53:22;3.53;;;2.08;;
34144;SDS011;20422;53.014;8.886;2022-11-09T00:55:52;4.18;;;2.42;;
34144;SDS011;20422;53.014;8.886;2022-11-09T00:58:27;3.33;;;2.45;;
34144;SDS011;20422;53.014;8.886;2022-11-09T01:00:54;9.73;;;3.03;;
34144;SDS011;20422;53.014;8.886;2022-11-09T01:03:22;5.07;;;1.95;;
34144;SDS011;20422;53.014;8.886;2022-11-09T01:05:50;3.25;;;2.30;;
34144;SDS011;20422;53.014;8.886;2022-11-09T01:08:17;6.78;;;2.78;;
34144;SDS011;20422;53.014;8.886;2022-11-09T01:10:45;2.63;;;2.15;;
34144;SDS011;20422;53.014;8.886;2022-11-09T01:13:14;5.93;;;2.03;;
34144;SDS011;20422;53.014;8.886;2022-11-09T01:15:43;8.38;;;2.55;;
34144;SDS011;20422;53.014;8.886;2022-11-09T01:18:11;3.83;;;2.38;;
34144;SDS011;20422;53.014;8.886;2022-11-09T01:20:39;5.78;;;1.98;;
34144;SDS011;20422;53.014;8.886;2022-11-09T01:23:07;4.35;;;2.15;;
34144;SDS011;20422;53.014;8.886;2022-11-09T01:25:35;8.65;;;2.53;;
34144;SDS011;20422;53.014;8.886;2022-11-09T01:28:00;5.60;;;2.22;;
34144;SDS011;20422;53.014;8.886;2022-11-09T01:30:27;5.40;;;2.10;;
34144;SDS011;20422;53.014;8.886;2022-11-09T01:32:53;6.28;;;2.22;;
34144;SDS011;20422;53.014;8.886;2022-11-09T01:35:19;2.80;;;2.28;;
34144;SDS011;20422;53.014;8.886;2022-11-09T01:37:46;3.45;;;1.92;;
34144;SDS011;20422;53.014;8.886;2022-11-09T01:40:13;4.45;;;2.30;;
34144;SDS011;20422;53.014;8.886;2022-11-09T01:42:41;6.22;;;2.42;;
34144;SDS011;20422;53.014;8.886;2022-11-09T01:45:26;6.00;;;2.22;;
34144;SDS011;20422;53.014;8.886;2022-11-09T01:48:28;5.50;;;2.13;;
34144;SDS011;20422;53.014;8.886;2022-11-09T01:50:54;4.05;;;2.08;;
34144;SDS011;20422;53.014;8.886;2022-11-09T01:53:30;4.43;;;2.30;;
34144;SDS011;20422;53.014;8.886;2022-11-09T01:56:04;4.60;;;1.95;;
34144;SDS011;20422;53.014;8.886;2022-11-09T01:58:54;3.78;;;2.00;;
34144;SDS011;20422;53.014;8.886;2022-11-09T02:01:21;6.88;;;2.45;;
34144;SDS011;20422;53.014;8.886;2022-11-09T02:03:54;5.57;;;2.40;;
34144;SDS011;20422;53.014;8.886;2022-11-09T02:06:25;6.80;;;2.25;;
34144;SDS011;20422;53.014;8.886;2022-11-09T02:08:54;7.97;;;1.98;;
34144;SDS011;20422;53.014;8.886;2022-11-09T02:11:26;7.43;;;2.55;;
34144;SDS011;20422;53.014;8.886;2022-11-09T02:13:55;3.35;;;1.83;;
34144;SDS011;20422;53.014;8.886;2022-11-09T02:16:23;4.85;;;2.60;;
34144;SDS011;20422;53.014;8.886;2022-11-09T02:18:55;7.65;;;2.50;;
34144;SDS011;20422;53.014;8.886;2022-11-09T02:21:24;2.97;;;1.88;;
34144;SDS011;20422;53.014;8.886;2022-11-09T02:23:53;5.10;;;2.90;;
34144;SDS011;20422;53.014;8.886;2022-11-09T02:27:01;3.72;;;1.88;;
34144;SDS011;20422;53.014;8.886;2022-11-09T02:29:30;6.00;;;1.70;;
34144;SDS011;20422;53.014;8.886;2022-11-09T02:31:59;4.88;;;2.03;;
34144;SDS011;20422;53.014;8.886;2022-11-09T02:36:56;5.95;;;1.85;;
34144;SDS011;20422;53.014;8.886;2022-11-09T02:39:23;6.53;;;3.08;;
34144;SDS011;20422;53.014;8.886;2022-11-09T02:41:52;2.83;;;1.48;;
34144;SDS011;20422;53.014;8.886;2022-11-09T02:44:21;2.90;;;1.75;;
34144;SDS011;20422;53.014;8.886;2022-11-09T02:46:49;5.93;;;3.13;;
34144;SDS011;20422;53.014;8.886;2022-11-09T02:49:15;4.07;;;2.10;;
34144;SDS011;20422;53.014;8.886;2022-11-09T02:51:42;6.55;;;2.10;;
34144;SDS011;20422;53.014;8.886;2022-11-09T02:54:09;7.05;;;1.65;;
34144;SDS011;20422;53.014;8.886;2022-11-09T02:56:35;7.18;;;1.85;;
34144;SDS011;20422;53.014;8.886;2022-11-09T02:59:01;7.05;;;2.28;;
34144;SDS011;20422;53.014;8.886;2022-11-09T03:01:29;7.25;;;2.20;;
34144;SDS011;20422;53.014;8.886;2022-11-09T03:03:54;4.38;;;1.90;;
34144;SDS011;20422;53.014;8.886;2022-11-09T03:06:20;4.65;;;2.45;;
34144;SDS011;20422;53.014;8.886;2022-11-09T03:09:00;4.68;;;1.80;;
34144;SDS011;20422;53.014;8.886;2022-11-09T03:11:27;6.43;;;2.40;;
34144;SDS011;20422;53.014;8.886;2022-11-09T03:13:52;7.13;;;2.03;;
34144;SDS011;20422;53.014;8.886;2022-11-09T03:16:18;5.00;;;2.28;;
34144;SDS011;20422;53.014;8.886;2022-11-09T03:18:44;5.85;;;1.70;;
34144;SDS011;20422;53.014;8.886;2022-11-09T03:21:11;5.80;;;1.90;;
34144;SDS011;20422;53.014;8.886;2022-11-09T03:23:38;3.58;;;1.80;;
34144;SDS011;20422;53.014;8.886;2022-11-09T03:26:03;4.13;;;1.80;;
34144;SDS011;20422;53.014;8.886;2022-11-09T03:28:30;4.18;;;1.75;;
34144;SDS011;20422;53.014;8.886;2022-11-09T03:30:55;5.38;;;2.42;;
34144;SDS011;20422;53.014;8.886;2022-11-09T03:33:22;4.30;;;2.10;;
34144;SDS011;20422;53.014;8.886;2022-11-09T03:35:48;7.80;;;2.17;;
34144;SDS011;20422;53.014;8.886;2022-11-09T03:38:16;4.35;;;1.90;;
34144;SDS011;20422;53.014;8.886;2022-11-09T03:40:43;5.25;;;2.20;;
34144;SDS011;20422;53.014;8.886;2022-11-09T03:43:09;4.97;;;1.83;;
34144;SDS011;20422;53.014;8.886;2022-11-09T03:45:35;5.20;;;1.88;;
34144;SDS011;20422;53.014;8.886;2022-11-09T03:48:01;4.97;;;2.33;;
34144;SDS011;20422;53.014;8.886;2022-11-09T03:50:29;8.98;;;1.88;;
34144;SDS011;20422;53.014;8.886;2022-11-09T03:52:58;6.43;;;1.65;;
34144;SDS011;20422;53.014;8.886;2022-11-09T03:55:26;2.55;;;1.60;;
34144;SDS011;20422;53.014;8.886;2022-11-09T03:57:52;6.03;;;1.92;;
34144;SDS011;20422;53.014;8.886;2022-11-09T04:00:20;6.10;;;2.10;;
34144;SDS011;20422;53.014;8.886;2022-11-09T04:02:47;5.97;;;1.80;;
34144;SDS011;20422;53.014;8.886;2022-11-09T04:05:12;4.45;;;2.05;;
34144;SDS011;20422;53.014;8.886;2022-11-09T04:07:45;6.30;;;2.13;;
34144;SDS011;20422;53.014;8.886;2022-11-09T04:10:17;4.13;;;1.70;;
34144;SDS011;20422;53.014;8.886;2022-11-09T04:12:44;2.42;;;1.33;;
34144;SDS011;20422;53.014;8.886;2022-11-09T04:15:10;6.85;;;1.88;;
34144;SDS011;20422;53.014;8.886;2022-11-09T04:17:38;4.45;;;1.58;;
34144;SDS011;20422;53.014;8.886;2022-11-09T04:20:04;12.85;;;1.80;;
34144;SDS011;20422;53.014;8.886;2022-11-09T04:22:32;3.60;;;1.40;;
34144;SDS011;20422;53.014;8.886;2022-11-09T04:24:59;4.00;;;1.65;;
34144;SDS011;20422;53.014;8.886;2022-11-09T04:27:26;6.07;;;1.85;;
34144;SDS011;20422;53.014;8.886;2022-11-09T04:29:52;5.95;;;1.88;;
34144;SDS011;20422;53.014;8.886;2022-11-09T04:32:19;3.38;;;1.75;;
34144;SDS011;20422;53.014;8.886;2022-11-09T04:34:46;4.25;;;1.30;;
34144;SDS011;20422;53.014;8.886;2022-11-09T04:37:12;1.90;;;1.30;;
34144;SDS011;20422;53.014;8.886;2022-11-09T04:39:39;3.28;;;1.58;;
34144;SDS011;20422;53.014;8.886;2022-11-09T04:42:06;3.97;;;1.83;;
34144;SDS011;20422;53.014;8.886;2022-11-09T04:44:32;7.00;;;1.60;;
34144;SDS011;20422;53.014;8.886;2022-11-09T04:46:59;2.70;;;1.45;;
34144;SDS011;20422;53.014;8.886;2022-11-09T04:49:25;2.13;;;1.30;;
34144;SDS011;20422;53.014;8.886;2022-11-09T04:51:52;2.10;;;1.42;;
34144;SDS011;20422;53.014;8.886;2022-11-09T04:54:19;4.25;;;1.77;;
34144;SDS011;20422;53.014;8.886;2022-11-09T04:59:15;4.68;;;1.48;;
34144;SDS011;20422;53.014;8.886;2022-11-09T05:01:41;4.07;;;1.67;;
34144;SDS011;20422;53.014;8.886;2022-11-09T05:04:08;3.05;;;1.55;;
34144;SDS011;20422;53.014;8.886;2022-11-09T05:06:34;2.72;;;1.58;;
34144;SDS011;20422;53.014;8.886;2022-11-09T05:09:01;8.05;;;1.55;;
34144;SDS011;20422;53.014;8.886;2022-11-09T05:11:32;4.65;;;1.77;;
34144;SDS011;20422;53.014;8.886;2022-11-09T05:14:00;3.47;;;1.37;;
34144;SDS011;20422;53.014;8.886;2022-11-09T05:16:27;3.85;;;1.50;;
34144;SDS011;20422;53.014;8.886;2022-11-09T05:18:54;2.58;;;1.30;;
34144;SDS011;20422;53.014;8.886;2022-11-09T05:21:21;3.17;;;1.17;;
34144;SDS011;20422;53.014;8.886;2022-11-09T05:23:47;3.55;;;1.42;;
34144;SDS011;20422;53.014;8.886;2022-11-09T05:26:37;2.22;;;1.10;;
34144;SDS011;20422;53.014;8.886;2022-11-09T05:29:08;2.15;;;1.17;;
34144;SDS011;20422;53.014;8.886;2022-11-09T05:31:36;4.70;;;1.42;;
34144;SDS011;20422;53.014;8.886;2022-11-09T05:34:04;2.38;;;1.50;;
34144;SDS011;20422;53.014;8.886;2022-11-09T05:36:32;1.80;;;1.33;;
34144;SDS011;20422;53.014;8.886;2022-11-09T05:38:59;2.22;;;1.30;;
34144;SDS011;20422;53.014;8.886;2022-11-09T05:41:26;6.55;;;1.63;;
34144;SDS011;20422;53.014;8.886;2022-11-09T05:43:53;4.60;;;1.27;;
34144;SDS011;20422;53.014;8.886;2022-11-09T05:46:18;2.70;;;1.25;;
34144;SDS011;20422;53.014;8.886;2022-11-09T05:48:45;4.90;;;1.98;;
34144;SDS011;20422;53.014;8.886;2022-11-09T05:51:13;3.15;;;1.58;;
34144;SDS011;20422;53.014;8.886;2022-11-09T05:53:40;4.25;;;1.27;;
34144;SDS011;20422;53.014;8.886;2022-11-09T05:56:07;3.83;;;1.25;;
34144;SDS011;20422;53.014;8.886;2022-11-09T05:58:35;2.15;;;1.30;;
34144;SDS011;20422;53.014;8.886;2022-11-09T06:01:04;5.03;;;1.63;;
34144;SDS011;20422;53.014;8.886;2022-11-09T06:03:31;5.18;;;1.33;;
34144;SDS011;20422;53.014;8.886;2022-11-09T06:06:04;4.85;;;1.88;;
34144;SDS011;20422;53.014;8.886;2022-11-09T06:08:32;2.28;;;1.60;;
34144;SDS011;20422;53.014;8.886;2022-11-09T06:10:58;4.20;;;1.70;;
34144;SDS011;20422;53.014;8.886;2022-11-09T06:13:25;3.63;;;1.48;;
34144;SDS011;20422;53.014;8.886;2022-11-09T06:15:53;2.25;;;1.30;;
34144;SDS011;20422;53.014;8.886;2022-11-09T06:18:24;7.10;;;1.35;;
34144;SDS011;20422;53.014;8.886;2022-11-09T06:20:53;8.15;;;2.70;;
34144;SDS011;20422;53.014;8.886;2022-11-09T06:23:21;4.32;;;1.48;;
34144;SDS011;20422;53.014;8.886;2022-11-09T06:26:03;3.38;;;1.83;;
34144;SDS011;20422;53.014;8.886;2022-11-09T06:28:36;3.33;;;1.30;;
34144;SDS011;20422;53.014;8.886;2022-11-09T06:31:05;10.55;;;1.92;;
34144;SDS011;20422;53.014;8.886;2022-11-09T06:33:33;3.15;;;1.63;;
34144;SDS011;20422;53.014;8.886;2022-11-09T06:36:01;2.65;;;1.42;;
34144;SDS011;20422;53.014;8.886;2022-11-09T06:38:27;5.43;;;1.92;;
34144;SDS011;20422;53.014;8.886;2022-11-09T06:40:54;4.07;;;1.50;;
34144;SDS011;20422;53.014;8.886;2022-11-09T06:43:21;5.13;;;1.75;;
34144;SDS011;20422;53.014;8.886;2022-11-09T06:45:47;12.25;;;1.63;;
34144;SDS011;20422;53.014;8.886;2022-11-09T06:48:13;4.68;;;1.40;;
34144;SDS011;20422;53.014;8.886;2022-11-09T06:50:40;5.20;;;1.58;;
34144;SDS011;20422;53.014;8.886;2022-11-09T06:53:06;9.95;;;2.10;;
34144;SDS011;20422;53.014;8.886;2022-11-09T06:55:34;8.83;;;1.70;;
34144;SDS011;20422;53.014;8.886;2022-11-09T06:58:12;6.80;;;1.80;;
34144;SDS011;20422;53.014;8.886;2022-11-09T07:00:40;11.93;;;2.00;;
34144;SDS011;20422;53.014;8.886;2022-11-09T07:03:08;5.80;;;1.63;;
34144;SDS011;20422;53.014;8.886;2022-11-09T07:05:41;6.75;;;2.10;;
34144;SDS011;20422;53.014;8.886;2022-11-09T07:08:08;7.53;;;1.77;;
34144;SDS011;20422;53.014;8.886;2022-11-09T07:10:34;9.30;;;2.50;;
34144;SDS011;20422;53.014;8.886;2022-11-09T07:13:01;7.85;;;2.42;;
34144;SDS011;20422;53.014;8.886;2022-11-09T07:15:27;5.22;;;2.05;;
34144;SDS011;20422;53.014;8.886;2022-11-09T07:17:59;9.15;;;2.25;;
34144;SDS011;20422;53.014;8.886;2022-11-09T07:20:26;8.90;;;2.13;;
34144;SDS011;20422;53.014;8.886;2022-11-09T07:22:54;6.95;;;2.40;;
34144;SDS011;20422;53.014;8.886;2022-11-09T07:25:19;4.90;;;1.70;;
34144;SDS011;20422;53.014;8.886;2022-11-09T07:27:46;9.85;;;2.53;;
34144;SDS011;20422;53.014;8.886;2022-11-09T07:30:13;6.63;;;2.97;;
34144;SDS011;20422;53.014;8.886;2022-11-09T07:32:40;9.65;;;1.42;;
34144;SDS011;20422;53.014;8.886;2022-11-09T07:35:08;9.85;;;1.70;;
34144;SDS011;20422;53.014;8.886;2022-11-09T07:37:35;4.25;;;1.50;;
34144;SDS011;20422;53.014;8.886;2022-11-09T07:40:02;11.50;;;1.88;;
34144;SDS011;20422;53.014;8.886;2022-11-09T07:42:28;6.20;;;2.10;;
34144;SDS011;20422;53.014;8.886;2022-11-09T07:44:54;6.82;;;1.73;;
34144;SDS011;20422;53.014;8.886;2022-11-09T07:47:20;4.50;;;2.00;;
34144;SDS011;20422;53.014;8.886;2022-11-09T07:49:46;8.88;;;2.20;;
34144;SDS011;20422;53.014;8.886;2022-11-09T07:52:12;7.20;;;2.05;;
34144;SDS011;20422;53.014;8.886;2022-11-09T07:54:39;7.78;;;2.22;;
34144;SDS011;20422;53.014;8.886;2022-11-09T07:57:04;10.85;;;2.92;;
34144;SDS011;20422;53.014;8.886;2022-11-09T07:59:32;5.60;;;1.63;;
34144;SDS011;20422;53.014;8.886;2022-11-09T08:01:58;7.55;;;2.00;;
34144;SDS011;20422;53.014;8.886;2022-11-09T08:04:23;7.63;;;2.35;;
34144;SDS011;20422;53.014;8.886;2022-11-09T08:06:55;5.15;;;1.77;;
34144;SDS011;20422;53.014;8.886;2022-11-09T08:09:20;13.15;;;2.15;;
34144;SDS011;20422;53.014;8.886;2022-11-09T08:11:47;11.63;;;2.17;;
34144;SDS011;20422;53.014;8.886;2022-11-09T08:14:12;12.63;;;2.17;;
34144;SDS011;20422;53.014;8.886;2022-11-09T08:16:39;7.65;;;1.85;;
34144;SDS011;20422;53.014;8.886;2022-11-09T08:19:05;11.80;;;2.58;;
34144;SDS011;20422;53.014;8.886;2022-11-09T08:21:35;8.70;;;1.88;;
34144;SDS011;20422;53.014;8.886;2022-11-09T08:24:01;9.35;;;1.98;;
34144;SDS011;20422;53.014;8.886;2022-11-09T08:26:28;10.05;;;1.92;;
34144;SDS011;20422;53.014;8.886;2022-11-09T08:28:54;7.88;;;2.60;;
34144;SDS011;20422;53.014;8.886;2022-11-09T08:31:19;16.23;;;1.75;;
34144;SDS011;20422;53.014;8.886;2022-11-09T08:33:46;9.10;;;1.77;;
34144;SDS011;20422;53.014;8.886;2022-11-09T08:36:14;6.65;;;1.50;;
34144;SDS011;20422;53.014;8.886;2022-11-09T08:38:42;6.97;;;2.33;;
34144;SDS011;20422;53.014;8.886;2022-11-09T08:41:10;6.85;;;1.98;;
34144;SDS011;20422;53.014;8.886;2022-11-09T08:43:38;7.25;;;1.63;;
34144;SDS011;20422;53.014;8.886;2022-11-09T08:46:03;9.15;;;2.35;;
34144;SDS011;20422;53.014;8.886;2022-11-09T08:48:30;6.65;;;1.90;;
34144;SDS011;20422;53.014;8.886;2022-11-09T08:50:57;7.72;;;1.60;;
34144;SDS011;20422;53.014;8.886;2022-11-09T08:53:24;5.55;;;1.98;;
34144;SDS011;20422;53.014;8.886;2022-11-09T08:55:52;7.30;;;2.10;;
34144;SDS011;20422;53.014;8.886;2022-11-09T08:58:18;7.28;;;2.50;;
34144;SDS011;20422;53.014;8.886;2022-11-09T09:00:45;12.93;;;2.28;;
34144;SDS011;20422;53.014;8.886;2022-11-09T09:03:12;7.45;;;2.20;;
34144;SDS011;20422;53.014;8.886;2022-11-09T09:05:39;15.55;;;2.63;;
34144;SDS011;20422;53.014;8.886;2022-11-09T09:08:04;8.90;;;2.00;;
34144;SDS011;20422;53.014;8.886;2022-11-09T09:10:32;6.50;;;1.77;;
34144;SDS011;20422;53.014;8.886;2022-11-09T09:13:01;9.63;;;2.22;;
34144;SDS011;20422;53.014;8.886;2022-11-09T09:15:28;11.85;;;2.45;;
34144;SDS011;20422;53.014;8.886;2022-11-09T09:17:57;8.63;;;2.00;;
34144;SDS011;20422;53.014;8.886;2022-11-09T09:20:23;10.98;;;2.00;;
34144;SDS011;20422;53.014;8.886;2022-11-09T09:22:50;6.72;;;1.92;;
34144;SDS011;20422;53.014;8.886;2022-11-09T09:25:18;9.10;;;2.30;;
34144;SDS011;20422;53.014;8.886;2022-11-09T09:27:44;12.07;;;1.95;;
34144;SDS011;20422;53.014;8.886;2022-11-09T09:30:11;9.05;;;1.90;;
34144;SDS011;20422;53.014;8.886;2022-11-09T09:32:38;7.80;;;2.00;;
34144;SDS011;20422;53.014;8.886;2022-11-09T09:35:05;6.13;;;1.58;;
34144;SDS011;20422;53.014;8.886;2022-11-09T09:37:31;10.93;;;2.00;;
34144;SDS011;20422;53.014;8.886;2022-11-09T09:39:57;8.30;;;2.78;;
34144;SDS011;20422;53.014;8.886;2022-11-09T09:42:24;7.35;;;1.50;;
34144;SDS011;20422;53.014;8.886;2022-11-09T09:45:03;10.15;;;1.95;;
34144;SDS011;20422;53.014;8.886;2022-11-09T09:47:46;12.25;;;2.17;;
34144;SDS011;20422;53.014;8.886;2022-11-09T09:50:52;13.43;;;1.92;;
34144;SDS011;20422;53.014;8.886;2022-11-09T09:53:25;11.32;;;1.83;;
34144;SDS011;20422;53.014;8.886;2022-11-09T09:58:58;13.50;;;2.65;;
34144;SDS011;20422;53.014;8.886;2022-11-09T10:01:49;9.48;;;1.52;;
34144;SDS011;20422;53.014;8.886;2022-11-09T10:04:22;5.70;;;1.63;;
34144;SDS011;20422;53.014;8.886;2022-11-09T10:07:11;5.90;;;2.35;;
34144;SDS011;20422;53.014;8.886;2022-11-09T10:09:58;6.38;;;2.20;;
34144;SDS011;20422;53.014;8.886;2022-11-09T10:21:11;11.18;;;2.17;;
34144;SDS011;20422;53.014;8.886;2022-11-09T10:26:48;7.73;;;1.87;;
34144;SDS011;20422;53.014;8.886;2022-11-09T10:32:08;11.40;;;1.85;;
34144;SDS011;20422;53.014;8.886;2022-11-09T10:37:40;8.10;;;2.88;;
34144;SDS011;20422;53.014;8.886;2022-11-09T10:43:03;5.45;;;1.77;;
34144;SDS011;20422;53.014;8.886;2022-11-09T10:45:40;12.80;;;2.63;;
34144;SDS011;20422;53.014;8.886;2022-11-09T10:48:09;9.48;;;2.90;;
34144;SDS011;20422;53.014;8.886;2022-11-09T10:50:41;6.72;;;2.30;;
34144;SDS011;20422;53.014;8.886;2022-11-09T10:53:25;9.00;;;2.40;;
34144;SDS011;20422;53.014;8.886;2022-11-09T10:58:50;8.05;;;2.22;;
34144;SDS011;20422;53.014;8.886;2022-11-09T11:01:24;13.65;;;2.75;;
34144;SDS011;20422;53.014;8.886;2022-11-09T11:03:59;8.77;;;1.90;;
34144;SDS011;20422;53.014;8.886;2022-11-09T11:09:18;8.23;;;2.25;;
34144;SDS011;20422;53.014;8.886;2022-11-09T11:11:46;8.88;;;2.08;;
34144;SDS011;20422;53.014;8.886;2022-11-09T11:14:19;8.60;;;2.05;;
34144;SDS011;20422;53.014;8.886;2022-11-09T11:17:00;5.32;;;1.92;;
34144;SDS011;20422;53.014;8.886;2022-11-09T11:19:36;8.45;;;2.95;;
34144;SDS011;20422;53.014;8.886;2022-11-09T11:22:20;10.77;;;1.92;;
34144;SDS011;20422;53.014;8.886;2022-11-09T11:27:20;8.27;;;2.55;;
34144;SDS011;20422;53.014;8.886;2022-11-09T11:29:54;11.20;;;2.00;;
34144;SDS011;20422;53.014;8.886;2022-11-09T11:32:30;9.82;;;2.15;;
34144;SDS011;20422;53.014;8.886;2022-11-09T11:34:58;11.45;;;1.90;;
34144;SDS011;20422;53.014;8.886;2022-11-09T11:40:14;11.85;;;2.38;;
34144;SDS011;20422;53.014;8.886;2022-11-09T11:54:55;13.52;;;2.08;;
34144;SDS011;20422;53.014;8.886;2022-11-09T11:57:38;9.85;;;1.77;;
34144;SDS011;20422;53.014;8.886;2022-11-09T12:00:16;9.10;;;2.70;;
34144;SDS011;20422;53.014;8.886;2022-11-09T12:11:27;8.48;;;1.88;;
34144;SDS011;20422;53.014;8.886;2022-11-09T12:14:03;14.65;;;1.85;;
34144;SDS011;20422;53.014;8.886;2022-11-09T12:16:58;11.18;;;1.77;;
34144;SDS011;20422;53.014;8.886;2022-11-09T12:22:40;6.75;;;1.60;;
34144;SDS011;20422;53.014;8.886;2022-11-09T12:25:28;10.65;;;1.33;;
34144;SDS011;20422;53.014;8.886;2022-11-09T12:28:49;14.90;;;2.05;;
34144;SDS011;20422;53.014;8.886;2022-11-09T12:31:03;7.72;;;1.65;;
34144;SDS011;20422;53.014;8.886;2022-11-09T12:34:02;7.45;;;1.38;;
34144;SDS011;20422;53.014;8.886;2022-11-09T12:37:25;7.32;;;1.25;;
34144;SDS011;20422;53.014;8.886;2022-11-09T12:39:54;6.50;;;1.52;;
34144;SDS011;20422;53.014;8.886;2022-11-09T12:42:35;11.98;;;1.92;;
34144;SDS011;20422;53.014;8.886;2022-11-09T12:45:12;7.00;;;1.58;;
34144;SDS011;20422;53.014;8.886;2022-11-09T12:47:40;6.53;;;1.35;;
34144;SDS011;20422;53.014;8.886;2022-11-09T12:50:21;5.50;;;1.40;;
34144;SDS011;20422;53.014;8.886;2022-11-09T12:52:50;6.03;;;1.52;;
34144;SDS011;20422;53.014;8.886;2022-11-09T12:55:26;8.05;;;1.85;;
34144;SDS011;20422;53.014;8.886;2022-11-09T12:57:58;7.82;;;1.70;;
34144;SDS011;20422;53.014;8.886;2022-11-09T13:03:14;11.57;;;1.70;;
34144;SDS011;20422;53.014;8.886;2022-11-09T13:05:46;6.57;;;1.40;;
34144;SDS011;20422;53.014;8.886;2022-11-09T13:08:17;12.00;;;1.50;;
34144;SDS011;20422;53.014;8.886;2022-11-09T13:11:05;10.32;;;1.90;;
34144;SDS011;20422;53.014;8.886;2022-11-09T13:13:34;4.47;;;1.52;;
34144;SDS011;20422;53.014;8.886;2022-11-09T13:23:51;5.25;;;1.35;;
34144;SDS011;20422;53.014;8.886;2022-11-09T13:26:54;8.95;;;1.60;;
34144;SDS011;20422;53.014;8.886;2022-11-09T13:29:21;8.20;;;1.83;;
34144;SDS011;20422;53.014;8.886;2022-11-09T13:35:10;8.43;;;2.03;;
34144;SDS011;20422;53.014;8.886;2022-11-09T13:37:45;7.70;;;1.48;;
34144;SDS011;20422;53.014;8.886;2022-11-09T13:43:05;10.95;;;1.73;;
34144;SDS011;20422;53.014;8.886;2022-11-09T13:45:41;4.90;;;2.00;;
34144;SDS011;20422;53.014;8.886;2022-11-09T13:48:33;9.32;;;2.15;;
34144;SDS011;20422;53.014;8.886;2022-11-09T13:50:58;9.48;;;1.80;;
34144;SDS011;20422;53.014;8.886;2022-11-09T13:56:11;6.03;;;1.65;;
34144;SDS011;20422;53.014;8.886;2022-11-09T13:58:37;11.15;;;1.45;;
34144;SDS011;20422;53.014;8.886;2022-11-09T14:01:29;7.40;;;1.40;;
34144;SDS011;20422;53.014;8.886;2022-11-09T14:03:56;5.55;;;1.50;;
34144;SDS011;20422;53.014;8.886;2022-11-09T14:06:23;7.07;;;1.30;;
34144;SDS011;20422;53.014;8.886;2022-11-09T14:08:49;7.80;;;1.50;;
34144;SDS011;20422;53.014;8.886;2022-11-09T14:17:37;4.70;;;1.48;;
34144;SDS011;20422;53.014;8.886;2022-11-09T14:20:18;3.13;;;1.38;;
34144;SDS011;20422;53.014;8.886;2022-11-09T14:22:52;5.70;;;1.20;;
34144;SDS011;20422;53.014;8.886;2022-11-09T14:25:19;8.85;;;1.13;;
34144;SDS011;20422;53.014;8.886;2022-11-09T14:27:54;4.68;;;0.93;;
34144;SDS011;20422;53.014;8.886;2022-11-09T14:30:29;7.05;;;1.27;;
34144;SDS011;20422;53.014;8.886;2022-11-09T14:32:57;4.78;;;1.20;;
34144;SDS011;20422;53.014;8.886;2022-11-09T14:35:28;9.50;;;2.05;;
34144;SDS011;20422;53.014;8.886;2022-11-09T14:37:56;6.53;;;1.55;;
34144;SDS011;20422;53.014;8.886;2022-11-09T14:40:30;7.22;;;1.60;;
34144;SDS011;20422;53.014;8.886;2022-11-09T14:43:05;10.38;;;1.83;;
34144;SDS011;20422;53.014;8.886;2022-11-09T14:45:54;8.13;;;1.85;;
34144;SDS011;20422;53.014;8.886;2022-11-09T14:48:23;12.13;;;1.63;;
34144;SDS011;20422;53.014;8.886;2022-11-09T14:50:51;5.10;;;1.20;;
34144;SDS011;20422;53.014;8.886;2022-11-09T14:53:20;8.13;;;1.30;;
34144;SDS011;20422;53.014;8.886;2022-11-09T14:55:50;6.50;;;1.17;;
34144;SDS011;20422;53.014;8.886;2022-11-09T14:58:17;9.13;;;1.23;;
34144;SDS011;20422;53.014;8.886;2022-11-09T15:00:45;6.70;;;1.60;;
34144;SDS011;20422;53.014;8.886;2022-11-09T15:03:38;4.03;;;1.25;;
34144;SDS011;20422;53.014;8.886;2022-11-09T15:06:15;5.75;;;1.33;;
34144;SDS011;20422;53.014;8.886;2022-11-09T15:08:49;8.80;;;1.55;;
34144;SDS011;20422;53.014;8.886;2022-11-09T15:11:20;4.85;;;2.05;;
34144;SDS011;20422;53.014;8.886;2022-11-09T15:13:56;5.00;;;1.13;;
34144;SDS011;20422;53.014;8.886;2022-11-09T15:16:26;8.60;;;1.50;;
34144;SDS011;20422;53.014;8.886;2022-11-09T15:18:54;6.40;;;1.45;;
34144;SDS011;20422;53.014;8.886;2022-11-09T15:24:28;6.90;;;1.70;;
34144;SDS011;20422;53.014;8.886;2022-11-09T15:26:49;12.88;;;3.38;;
34144;SDS011;20422;53.014;8.886;2022-11-09T15:34:38;4.07;;;1.23;;
34144;SDS011;20422;53.014;8.886;2022-11-09T15:37:23;3.67;;;1.33;;
34144;SDS011;20422;53.014;8.886;2022-11-09T15:40:12;7.18;;;1.63;;
34144;SDS011;20422;53.014;8.886;2022-11-09T15:42:39;4.72;;;1.98;;
34144;SDS011;20422;53.014;8.886;2022-11-09T15:45:06;4.47;;;1.20;;
34144;SDS011;20422;53.014;8.886;2022-11-09T15:47:33;4.80;;;2.13;;
34144;SDS011;20422;53.014;8.886;2022-11-09T15:50:23;4.82;;;1.60;;
34144;SDS011;20422;53.014;8.886;2022-11-09T15:52:50;6.22;;;1.20;;
34144;SDS011;20422;53.014;8.886;2022-11-09T15:55:18;8.50;;;1.40;;
34144;SDS011;20422;53.014;8.886;2022-11-09T15:57:49;7.93;;;0.93;;
34144;SDS011;20422;53.014;8.886;2022-11-09T16:00:18;2.38;;;1.13;;
34144;SDS011;20422;53.014;8.886;2022-11-09T16:02:46;9.73;;;1.55;;
34144;SDS011;20422;53.014;8.886;2022-11-09T16:05:13;5.93;;;1.27;;
34144;SDS011;20422;53.014;8.886;2022-11-09T16:07:49;7.60;;;1.50;;
34144;SDS011;20422;53.014;8.886;2022-11-09T16:10:18;7.82;;;1.50;;
34144;SDS011;20422;53.014;8.886;2022-11-09T16:12:45;6.03;;;1.55;;
34144;SDS011;20422;53.014;8.886;2022-11-09T16:15:12;7.70;;;1.58;;
34144;SDS011;20422;53.014;8.886;2022-11-09T16:17:39;4.88;;;2.03;;
34144;SDS011;20422;53.014;8.886;2022-11-09T16:20:04;4.40;;;1.30;;
34144;SDS011;20422;53.014;8.886;2022-11-09T16:22:32;6.28;;;1.85;;
34144;SDS011;20422;53.014;8.886;2022-11-09T16:24:57;16.35;;;8.93;;
34144;SDS011;20422;53.014;8.886;2022-11-09T16:27:24;29.73;;;16.33;;
34144;SDS011;20422;53.014;8.886;2022-11-09T16:29:51;23.45;;;9.85;;
34144;SDS011;20422;53.014;8.886;2022-11-09T16:32:18;17.73;;;8.48;;
34144;SDS011;20422;53.014;8.886;2022-11-09T16:34:43;15.05;;;4.90;;
34144;SDS011;20422;53.014;8.886;2022-11-09T16:37:10;15.50;;;3.00;;
34144;SDS011;20422;53.014;8.886;2022-11-09T16:39:36;6.38;;;1.92;;
34144;SDS011;20422;53.014;8.886;2022-11-09T16:42:04;6.13;;;1.70;;